Weather at Bandaranaike International Colombo Airport

Public forecast

Using degrees Celsius for public forecast. Weather courtesy of forecast.io.

Current aviation weather report (METAR) for Bandaranaike International Colombo Airport

2024/05/18 09:10 (retrieved 1 hour ago)

VCBI 180910Z 26006KT 200V330 9000 FEW014 BKN016 FEW019CB 28/25 Q1005 NOSIG RMK CB NE/SW/W

Aviation forecast (TAF) for Bandaranaike International Colombo Airport

2024/05/18 06:00 (retrieved 4 hours ago)

TAF VCBI 180500Z 1806/1912 26008KT 9999 BKN017 TX32/1807Z TN24/1900Z PROB40 TEMPO 1808/1815 VRB10G25KT 6000 TSRA/SHRA BKN016 FEW018CB